Time,TemperatureF,DewpointF,PressureIn,WindDirection,WindDirectionDegrees,WindSpeedMPH,WindSpeedGustMPH,Humidity,HourlyPrecipIn,Conditions,Clouds,dailyrainin,SoftwareType,DateUTC
2013-01-30 00:02:00,21.0,11.0,30.15,South,173,9.0,26.0,66,0.00,,,0.00,weatherlink.com 1.10,2013-01-30 07:02:00,
2013-01-30 00:17:00,20.8,11.0,30.13,SSE,156,14.0,29.0,65,0.00,,,0.00,weatherlink.com 1.10,2013-01-30 07:17:00,
2013-01-30 00:32:00,20.7,11.0,30.11,South,170,18.0,28.0,66,0.00,,,0.00,weatherlink.com 1.10,2013-01-30 07:32:00,
2013-01-30 00:47:00,21.9,12.0,30.11,SSE,166,15.0,27.0,67,0.00,,,0.00,weatherlink.com 1.10,2013-01-30 07:47:00,
2013-01-30 01:02:00,22.2,12.0,30.11,SSE,161,19.0,26.0,66,0.00,,,0.00,weatherlink.com 1.10,2013-01-30 08:02:00,
2013-01-30 01:17:00,22.8,13.0,30.11,SSE,149,18.0,23.0,67,0.00,,,0.00,weatherlink.com 1.10,2013-01-30 08:17:00,
2013-01-30 01:32:00,22.6,13.0,30.11,South,170,8.0,28.0,66,0.00,,,0.00,weatherlink.com 1.10,2013-01-30 08:32:00,
2013-01-30 01:47:00,22.2,12.0,30.12,SSE,154,15.0,27.0,66,0.00,,,0.00,weatherlink.com 1.10,2013-01-30 08:47:00,
2013-01-30 02:02:00,23.0,14.0,30.11,SSE,159,18.0,24.0,67,0.00,,,0.00,weatherlink.com 1.10,2013-01-30 09:02:00,
2013-01-30 02:18:00,24.4,15.0,30.11,SSE,147,9.0,20.0,68,0.00,,,0.00,weatherlink.com 1.10,2013-01-30 09:18:00,
2013-01-30 02:33:00,23.4,14.0,30.11,SE,146,7.0,13.0,68,0.00,,,0.00,weatherlink.com 1.10,2013-01-30 09:33:00,
2013-01-30 02:48:00,25.1,15.0,30.10,South,169,8.0,22.0,66,0.00,,,0.00,weatherlink.com 1.10,2013-01-30 09:48:00,
2013-01-30 03:03:00,25.5,16.0,30.09,SSE,148,2.0,20.0,68,0.00,,,0.00,weatherlink.com 1.10,2013-01-30 10:03:00,
2013-01-30 03:18:00,26.9,17.0,30.07,SSE,155,7.0,25.0,67,0.00,,,0.00,weatherlink.com 1.10,2013-01-30 10:18:00,
2013-01-30 03:33:00,26.5,18.0,30.07,SE,144,6.0,25.0,69,0.00,,,0.00,weatherlink.com 1.10,2013-01-30 10:33:00,
2013-01-30 03:48:00,28.5,18.0,30.08,SE,126,7.0,22.0,65,0.00,,,0.00,weatherlink.com 1.10,2013-01-30 10:48:00,
2013-01-30 04:03:00,28.7,18.0,30.09,SSE,167,11.0,18.0,65,0.00,,,0.00,weatherlink.com 1.10,2013-01-30 11:03:00,
2013-01-30 04:18:00,27.9,17.0,30.08,SSE,150,13.0,23.0,65,0.00,,,0.00,weatherlink.com 1.10,2013-01-30 11:18:00,
2013-01-30 04:33:00,28.4,19.0,30.09,SE,146,8.0,17.0,68,0.00,,,0.00,weatherlink.com 1.10,2013-01-30 11:33:00,
2013-01-30 04:48:00,29.8,19.0,30.09,SSE,150,13.0,19.0,65,0.00,,,0.00,weatherlink.com 1.10,2013-01-30 11:48:00,
2013-01-30 05:03:00,29.4,21.0,30.07,SSE,159,7.0,16.0,70,0.00,,,0.00,weatherlink.com 1.10,2013-01-30 12:03:00,
2013-01-30 05:18:00,29.5,20.0,30.07,SSE,149,7.0,11.0,68,0.00,,,0.00,weatherlink.com 1.10,2013-01-30 12:18:00,
2013-01-30 05:33:00,29.9,20.0,30.08,SSE,160,6.0,16.0,68,0.00,,,0.00,weatherlink.com 1.10,2013-01-30 12:33:00,
2013-01-30 05:48:00,30.3,21.0,30.07,SSE,147,3.0,12.0,69,0.00,,,0.00,weatherlink.com 1.10,2013-01-30 12:48:00,
2013-01-30 06:03:00,31.6,21.0,30.07,SE,146,8.0,10.0,66,0.00,,,0.00,weatherlink.com 1.10,2013-01-30 13:03:00,
2013-01-30 06:18:00,31.5,22.0,30.08,SSE,148,0.0,7.0,67,0.00,,,0.00,weatherlink.com 1.10,2013-01-30 13:18:00,
2013-01-30 06:33:00,33.8,23.0,30.07,SSW,198,0.0,8.0,65,0.00,,,0.00,weatherlink.com 1.10,2013-01-30 13:33:00,
2013-01-30 06:48:00,34.8,23.0,30.07,West,269,0.0,9.0,62,0.00,,,0.00,weatherlink.com 1.10,2013-01-30 13:48:00,
2013-01-30 07:03:00,33.8,22.0,30.08,SSE,149,2.0,8.0,63,0.00,,,0.00,weatherlink.com 1.10,2013-01-30 14:03:00,
2013-01-30 07:18:00,33.6,23.0,30.07,SE,140,5.0,8.0,64,0.00,,,0.00,weatherlink.com 1.10,2013-01-30 14:18:00,
2013-01-30 07:33:00,33.4,23.0,30.07,SSE,158,4.0,9.0,65,0.00,,,0.00,weatherlink.com 1.10,2013-01-30 14:33:00,
2013-01-30 07:48:00,33.4,23.0,30.07,SSE,155,8.0,8.0,65,0.00,,,0.00,weatherlink.com 1.10,2013-01-30 14:48:00,
2013-01-30 08:03:00,34.0,23.0,30.07,SE,129,0.0,8.0,65,0.00,,,0.00,weatherlink.com 1.10,2013-01-30 15:03:00,
2013-01-30 08:18:00,34.4,23.0,30.07,SSE,153,3.0,5.0,64,0.00,,,0.00,weatherlink.com 1.10,2013-01-30 15:18:00,
2013-01-30 08:33:00,35.0,23.0,30.07,SE,145,8.0,14.0,63,0.00,,,0.00,weatherlink.com 1.10,2013-01-30 15:33:00,
2013-01-30 08:48:00,35.3,24.0,30.07,South,175,0.0,10.0,64,0.00,,,0.00,weatherlink.com 1.10,2013-01-30 15:48:00,
2013-01-30 09:03:00,35.1,24.0,30.07,SSE,159,3.0,9.0,64,0.00,,,0.00,weatherlink.com 1.10,2013-01-30 16:03:00,
2013-01-30 09:18:00,35.7,24.0,30.06,SSE,161,3.0,9.0,63,0.00,,,0.00,weatherlink.com 1.10,2013-01-30 16:18:00,
2013-01-30 09:33:00,35.6,25.0,30.07,SSE,154,8.0,12.0,65,0.00,,,0.00,weatherlink.com 1.10,2013-01-30 16:33:00,
2013-01-30 09:48:00,35.6,25.0,30.07,SSE,164,3.0,7.0,65,0.00,,,0.00,weatherlink.com 1.10,2013-01-30 16:48:00,
2013-01-30 10:03:00,36.0,25.0,30.07,SSE,157,4.0,11.0,65,0.00,,,0.00,weatherlink.com 1.10,2013-01-30 17:03:00,
2013-01-30 10:18:00,36.5,25.0,30.07,SSE,157,6.0,11.0,64,0.00,,,0.00,weatherlink.com 1.10,2013-01-30 17:18:00,
2013-01-30 10:33:00,37.2,25.0,30.07,ESE,122,4.0,11.0,62,0.00,,,0.00,weatherlink.com 1.10,2013-01-30 17:33:00,
2013-01-30 10:48:00,37.8,26.0,30.07,SSE,168,1.0,7.0,62,0.00,,,0.00,weatherlink.com 1.10,2013-01-30 17:48:00,
2013-01-30 11:03:00,37.9,25.0,30.07,South,169,6.0,7.0,61,0.00,,,0.00,weatherlink.com 1.10,2013-01-30 18:03:00,
2013-01-30 11:18:00,38.1,26.0,30.06,ESE,106,8.0,10.0,62,0.00,,,0.00,weatherlink.com 1.10,2013-01-30 18:18:00,
2013-01-30 11:33:00,38.2,26.0,30.06,South,174,5.0,9.0,62,0.00,,,0.00,weatherlink.com 1.10,2013-01-30 18:33:00,
2013-01-30 11:48:00,39.6,26.0,30.05,WSW,251,5.0,10.0,59,0.00,,,0.00,weatherlink.com 1.10,2013-01-30 18:48:00,
2013-01-30 12:03:00,40.3,26.0,30.05,WSW,254,5.0,9.0,58,0.00,,,0.00,weatherlink.com 1.10,2013-01-30 19:03:00,
2013-01-30 12:19:00,40.7,27.0,30.05,WSW,241,5.0,13.0,58,0.00,,,0.00,weatherlink.com 1.10,2013-01-30 19:19:00,
2013-01-30 12:34:00,41.0,27.0,30.04,West,279,7.0,11.0,57,0.00,,,0.00,weatherlink.com 1.10,2013-01-30 19:34:00,
2013-01-30 12:49:00,41.3,26.0,30.04,WSW,252,8.0,11.0,56,0.00,,,0.00,weatherlink.com 1.10,2013-01-30 19:49:00,
2013-01-30 13:04:00,41.7,26.0,30.04,WSW,245,11.0,15.0,55,0.00,,,0.00,weatherlink.com 1.10,2013-01-30 20:04:00,
2013-01-30 13:19:00,41.9,27.0,30.04,WNW,282,13.0,14.0,55,0.00,,,0.00,weatherlink.com 1.10,2013-01-30 20:19:00,
2013-01-30 13:34:00,41.5,26.0,30.03,WSW,256,9.0,15.0,54,0.00,,,0.00,weatherlink.com 1.10,2013-01-30 20:34:00,
2013-01-30 13:49:00,41.4,26.0,30.03,WSW,258,5.0,17.0,54,0.00,,,0.00,weatherlink.com 1.10,2013-01-30 20:49:00,
2013-01-30 14:04:00,41.0,26.0,30.03,WNW,296,5.0,12.0,56,0.00,,,0.00,weatherlink.com 1.10,2013-01-30 21:04:00,
2013-01-30 14:19:00,41.1,26.0,30.03,NW,306,8.0,14.0,56,0.00,,,0.00,weatherlink.com 1.10,2013-01-30 21:19:00,
2013-01-30 14:34:00,35.1,24.0,30.05,NNE,19,6.0,12.0,65,0.00,,,0.00,weatherlink.com 1.10,2013-01-30 21:34:00,
2013-01-30 14:49:00,33.3,25.0,30.05,NNE,13,2.0,10.0,71,0.00,,,0.00,weatherlink.com 1.10,2013-01-30 21:49:00,
2013-01-30 15:04:00,32.6,24.0,30.07,NNW,329,4.0,10.0,71,0.00,,,0.00,weatherlink.com 1.10,2013-01-30 22:04:00,
2013-01-30 15:19:00,31.6,23.0,30.07,NNW,336,9.0,14.0,71,0.00,,,0.00,weatherlink.com 1.10,2013-01-30 22:19:00,
2013-01-30 15:34:00,31.2,23.0,30.07,NNW,333,5.0,11.0,72,0.00,,,0.00,weatherlink.com 1.10,2013-01-30 22:34:00,
2013-01-30 15:49:00,30.9,23.0,30.08,NNW,345,5.0,11.0,71,0.00,,,0.00,weatherlink.com 1.10,2013-01-30 22:49:00,
2013-01-30 16:04:00,30.6,23.0,30.09,NNW,329,4.0,9.0,72,0.00,,,0.00,weatherlink.com 1.10,2013-01-30 23:04:00,
2013-01-30 16:19:00,30.3,22.0,30.09,North,349,6.0,9.0,71,0.00,,,0.00,weatherlink.com 1.10,2013-01-30 23:19:00,
2013-01-30 16:34:00,29.5,22.0,30.10,NW,313,6.0,8.0,74,0.00,,,0.00,weatherlink.com 1.10,2013-01-30 23:34:00,
2013-01-30 16:49:00,28.4,23.0,30.10,NW,321,6.0,7.0,80,0.00,,,0.00,weatherlink.com 1.10,2013-01-30 23:49:00,
2013-01-30 17:04:00,27.8,23.0,30.11,NW,319,0.0,6.0,83,0.00,,,0.00,weatherlink.com 1.10,2013-01-31 00:04:00,
2013-01-30 17:19:00,27.6,23.0,30.11,NNW,343,2.0,5.0,84,0.00,,,0.00,weatherlink.com 1.10,2013-01-31 00:19:00,
2013-01-30 17:34:00,27.3,23.0,30.11,North,360,3.0,5.0,85,0.00,,,0.00,weatherlink.com 1.10,2013-01-31 00:34:00,
2013-01-30 17:49:00,27.1,23.0,30.11,North,355,5.0,5.0,85,0.00,,,0.00,weatherlink.com 1.10,2013-01-31 00:49:00,
2013-01-30 18:04:00,26.9,23.0,30.11,NW,315,3.0,4.0,86,0.00,,,0.00,weatherlink.com 1.10,2013-01-31 01:04:00,
2013-01-30 18:19:00,26.8,23.0,30.11,NW,307,2.0,5.0,86,0.00,,,0.00,weatherlink.com 1.10,2013-01-31 01:19:00,
2013-01-30 18:34:00,26.8,23.0,30.11,WNW,301,0.0,4.0,85,0.00,,,0.00,weatherlink.com 1.10,2013-01-31 01:34:00,
2013-01-30 18:49:00,26.7,23.0,30.11,NNW,338,0.0,0.0,86,0.00,,,0.00,weatherlink.com 1.10,2013-01-31 01:49:00,
2013-01-30 19:04:00,26.5,23.0,30.12,NNE,15,5.0,6.0,85,0.00,,,0.00,weatherlink.com 1.10,2013-01-31 02:04:00,
2013-01-30 19:19:00,26.5,22.0,30.12,North,5,6.0,8.0,84,0.00,,,0.00,weatherlink.com 1.10,2013-01-31 02:19:00,
2013-01-30 19:34:00,26.0,22.0,30.12,NW,312,1.0,7.0,85,0.00,,,0.00,weatherlink.com 1.10,2013-01-31 02:34:00,
2013-01-30 19:49:00,25.6,22.0,30.13,North,355,5.0,8.0,85,0.00,,,0.00,weatherlink.com 1.10,2013-01-31 02:49:00,
2013-01-30 20:04:00,25.3,21.0,30.15,NNW,343,5.0,9.0,85,0.00,,,0.00,weatherlink.com 1.10,2013-01-31 03:04:00,
2013-01-30 20:19:00,25.0,21.0,30.15,NNW,337,5.0,8.0,86,0.00,,,0.00,weatherlink.com 1.10,2013-01-31 03:19:00,
2013-01-30 20:34:00,24.7,21.0,30.15,NNW,336,2.0,10.0,86,0.00,,,0.00,weatherlink.com 1.10,2013-01-31 03:34:00,
2013-01-30 20:49:00,24.3,20.0,30.15,NNW,327,3.0,7.0,85,0.00,,,0.00,weatherlink.com 1.10,2013-01-31 03:49:00,
2013-01-30 21:04:00,23.9,20.0,30.16,North,10,3.0,10.0,84,0.00,,,0.00,weatherlink.com 1.10,2013-01-31 04:04:00,
2013-01-30 21:19:00,23.1,19.0,30.17,North,355,7.0,10.0,84,0.00,,,0.00,weatherlink.com 1.10,2013-01-31 04:19:00,
2013-01-30 21:34:00,22.5,19.0,30.17,NNW,347,6.0,11.0,85,0.00,,,0.00,weatherlink.com 1.10,2013-01-31 04:34:00,
2013-01-30 21:49:00,21.9,18.0,30.18,NW,304,5.0,8.0,85,0.00,,,0.00,weatherlink.com 1.10,2013-01-31 04:49:00,
2013-01-30 22:04:00,21.6,18.0,30.17,North,9,5.0,10.0,85,0.00,,,0.00,weatherlink.com 1.10,2013-01-31 05:04:00,
2013-01-30 22:19:00,21.3,18.0,30.18,North,355,5.0,7.0,85,0.00,,,0.00,weatherlink.com 1.10,2013-01-31 05:19:00,
2013-01-30 22:34:00,20.7,17.0,30.18,North,349,4.0,8.0,85,0.00,,,0.00,weatherlink.com 1.10,2013-01-31 05:34:00,
2013-01-30 22:49:00,20.3,17.0,30.18,NNW,344,4.0,8.0,85,0.00,,,0.00,weatherlink.com 1.10,2013-01-31 05:49:00,
2013-01-30 23:04:00,19.9,16.0,30.18,NNE,18,7.0,9.0,85,0.00,,,0.00,weatherlink.com 1.10,2013-01-31 06:04:00,
2013-01-30 23:19:00,19.5,16.0,30.18,NNE,14,7.0,10.0,85,0.00,,,0.00,weatherlink.com 1.10,2013-01-31 06:19:00,
2013-01-30 23:34:00,19.1,15.0,30.18,NW,325,2.0,8.0,85,0.00,,,0.00,weatherlink.com 1.10,2013-01-31 06:34:00,
2013-01-30 23:49:00,18.9,15.0,30.20,North,351,6.0,10.0,85,0.00,,,0.00,weatherlink.com 1.10,2013-01-31 06:49:00,